createdAt,value
2023-03-26T00:00:34.477Z,96623.16
2023-03-26T00:02:35.892Z,96621.44
2023-03-26T00:04:37.309Z,96623.16
2023-03-26T00:06:39.283Z,96617.28
2023-03-26T00:08:41.092Z,96629.22
2023-03-26T00:10:42.626Z,96631.78
2023-03-26T00:12:43.921Z,96637.63
2023-03-26T00:14:45.227Z,96637.50
2023-03-26T00:16:47.662Z,96639.09
2023-03-26T00:18:49.150Z,96644.75
2023-03-26T00:20:50.480Z,96640.22
2023-03-26T00:22:51.816Z,96639.84
2023-03-26T00:24:53.217Z,96638.66
2023-03-26T00:26:54.967Z,96644.31
2023-03-26T00:28:56.292Z,96645.78
2023-03-26T00:30:57.627Z,96640.44
2023-03-26T00:32:59.143Z,96640.22
2023-03-26T00:35:04.069Z,96641.66
2023-03-26T00:37:05.412Z,96638.13
2023-03-26T00:39:06.748Z,96642.38
2023-03-26T00:41:08.048Z,96640.56
2023-03-26T00:43:10.164Z,96641.25
2023-03-26T00:45:11.515Z,96637.91
2023-03-26T00:47:13.372Z,96634.59
2023-03-26T00:49:14.915Z,96642.13
2023-03-26T00:51:16.354Z,96631.91
2023-03-26T00:53:17.998Z,96632.00
2023-03-26T00:55:19.340Z,96629.50
2023-03-26T00:57:34.589Z,96638.22
2023-03-26T00:59:36.663Z,96630.75
2023-03-26T01:01:38.070Z,96630.09
2023-03-26T01:03:39.571Z,96640.44
2023-03-26T01:05:42.992Z,96631.25
2023-03-26T01:07:44.762Z,96633.06
2023-03-26T01:09:50.288Z,96619.56
2023-03-26T01:11:51.671Z,96623.88
2023-03-26T01:13:53.005Z,96634.28
2023-03-26T01:15:54.520Z,96635.25
2023-03-26T01:17:58.074Z,96636.31
2023-03-26T01:20:13.264Z,96633.06
2023-03-26T01:22:14.693Z,96625.53
2023-03-26T01:24:16.252Z,96627.31
2023-03-26T01:26:18.660Z,96624.06
2023-03-26T01:28:19.958Z,96629.31
2023-03-26T01:30:21.380Z,96620.06
2023-03-26T01:32:22.732Z,96631.25
2023-03-26T01:34:24.147Z,96624.59
2023-03-26T01:36:25.442Z,96634.03
2023-03-26T01:38:27.859Z,96633.28
2023-03-26T01:40:29.192Z,96629.22
2023-03-26T01:42:30.483Z,96637.72
2023-03-26T01:44:32.212Z,96635.00
2023-03-26T01:46:36.323Z,96630.72
2023-03-26T01:48:37.831Z,96630.53
2023-03-26T01:50:39.139Z,96624.56
2023-03-26T01:52:40.500Z,96634.75
2023-03-26T01:54:41.835Z,96633.81
2023-03-26T01:56:45.564Z,96626.09
2023-03-26T01:58:46.857Z,96617.94
2023-03-26T02:00:48.204Z,96616.06
2023-03-26T02:02:49.576Z,96620.28
2023-03-26T02:04:53.404Z,96629.53
2023-03-26T02:06:54.848Z,96616.53
2023-03-26T02:08:56.181Z,96627.47
2023-03-26T02:10:57.634Z,96630.72
2023-03-26T02:12:58.964Z,96625.47
2023-03-26T02:15:00.330Z,96641.41
2023-03-26T02:17:02.199Z,96635.34
2023-03-26T02:19:04.433Z,96633.53
2023-03-26T02:21:06.301Z,96639.25
2023-03-26T02:23:09.084Z,96629.84
2023-03-26T02:25:10.592Z,96640.91
2023-03-26T02:27:12.360Z,96630.91
2023-03-26T02:29:14.010Z,96635.34
2023-03-26T02:31:17.174Z,96633.88
2023-03-26T02:33:18.520Z,96631.38
2023-03-26T02:35:19.886Z,96633.25
2023-03-26T02:37:21.219Z,96629.97
2023-03-26T02:39:22.515Z,96630.09
2023-03-26T02:41:23.840Z,96636.19
2023-03-26T02:43:25.470Z,96636.31
2023-03-26T02:45:26.834Z,96633.06
2023-03-26T02:47:28.195Z,96634.78
2023-03-26T02:49:29.525Z,96631.34
2023-03-26T02:51:34.846Z,96635.75
2023-03-26T02:53:37.610Z,96632.44
2023-03-26T02:55:39.102Z,96640.31
2023-03-26T02:57:41.228Z,96635.34
2023-03-26T02:59:42.543Z,96633.81
2023-03-26T03:01:43.842Z,96629.66
2023-03-26T03:03:47.252Z,96633.16
2023-03-26T03:05:48.604Z,96629.88
2023-03-26T03:07:49.903Z,96624.75
2023-03-26T03:09:51.187Z,96632.31
2023-03-26T03:11:52.846Z,96629.84
2023-03-26T03:13:54.172Z,96629.97
2023-03-26T03:15:56.093Z,96637.63
2023-03-26T03:17:57.698Z,96634.19
2023-03-26T03:19:59.045Z,96639.75
2023-03-26T03:22:00.444Z,96640.31
2023-03-26T03:24:02.188Z,96639.22
2023-03-26T03:26:03.548Z,96636.44
2023-03-26T03:28:04.890Z,96631.19
2023-03-26T03:30:06.184Z,96632.78
2023-03-26T03:32:07.497Z,96627.53
2023-03-26T03:34:08.802Z,96632.53
2023-03-26T03:36:19.798Z,96640.94
2023-03-26T03:38:22.019Z,96637.31
2023-03-26T03:40:23.324Z,96626.75
2023-03-26T03:42:24.639Z,96625.59
2023-03-26T03:44:26.222Z,96627.16
2023-03-26T03:46:27.596Z,96639.81
2023-03-26T03:48:28.918Z,96647.38
2023-03-26T03:50:33.111Z,96652.44
2023-03-26T03:52:36.423Z,96646.50
2023-03-26T03:54:37.779Z,96656.72
2023-03-26T03:56:39.618Z,96649.94
2023-03-26T03:58:41.751Z,96654.38
2023-03-26T04:00:44.862Z,96647.88
2023-03-26T04:02:46.343Z,96648.84
2023-03-26T04:04:50.398Z,96650.72
2023-03-26T04:06:52.191Z,96645.81
2023-03-26T04:08:53.486Z,96643.50
2023-03-26T04:10:54.825Z,96640.31
2023-03-26T04:12:56.164Z,96643.00
2023-03-26T04:14:57.495Z,96638.09
2023-03-26T04:16:58.801Z,96639.88
2023-03-26T04:19:02.367Z,96639.22
2023-03-26T04:21:03.830Z,96645.34
2023-03-26T04:23:05.237Z,96641.28
2023-03-26T04:25:07.639Z,96633.75
2023-03-26T04:27:08.975Z,96645.69
2023-03-26T04:29:12.815Z,96639.00
2023-03-26T04:31:15.778Z,96644.19
2023-03-26T04:33:17.123Z,96641.84
2023-03-26T04:35:19.512Z,96647.91
2023-03-26T04:37:20.845Z,96640.31
2023-03-26T04:39:22.143Z,96629.34
2023-03-26T04:41:26.336Z,96630.19
2023-03-26T04:43:27.954Z,96636.09
2023-03-26T04:45:30.410Z,96635.22
2023-03-26T04:47:31.747Z,96632.66
2023-03-26T04:49:33.171Z,96620.66
2023-03-26T04:51:35.097Z,96623.97
2023-03-26T04:53:36.424Z,96628.94
2023-03-26T04:55:37.767Z,96638.25
2023-03-26T04:57:39.070Z,96628.78
2023-03-26T04:59:41.465Z,96632.91
2023-03-26T05:01:45.990Z,96625.97
2023-03-26T05:03:47.530Z,96625.66
2023-03-26T05:05:49.709Z,96627.06
2023-03-26T05:07:51.191Z,96625.97
2023-03-26T05:09:52.501Z,96623.09
2023-03-26T05:11:53.839Z,96629.47
2023-03-26T05:13:56.954Z,96617.38
2023-03-26T05:15:58.311Z,96633.38
2023-03-26T05:17:59.702Z,96631.66
2023-03-26T05:20:01.060Z,96627.22
2023-03-26T05:22:02.528Z,96629.72
2023-03-26T05:24:03.916Z,96616.94
2023-03-26T05:26:07.733Z,96619.56
2023-03-26T05:28:09.042Z,96619.63
2023-03-26T05:30:10.604Z,96623.16
2023-03-26T05:32:11.896Z,96631.81
2023-03-26T05:34:13.301Z,96631.09
2023-03-26T05:36:15.433Z,96630.63
2023-03-26T05:38:16.776Z,96634.25
2023-03-26T05:40:18.128Z,96630.22
2023-03-26T05:42:19.438Z,96628.69
2023-03-26T05:44:20.732Z,96630.50
2023-03-26T05:46:23.329Z,96629.53
2023-03-26T05:48:24.729Z,96630.41
2023-03-26T05:50:26.053Z,96630.59
2023-03-26T05:52:27.382Z,96632.44
2023-03-26T05:54:28.675Z,96630.91
2023-03-26T05:56:30.094Z,96635.38
2023-03-26T05:58:31.486Z,96631.19
2023-03-26T06:00:33.743Z,96641.47
2023-03-26T06:02:35.210Z,96640.72
2023-03-26T06:04:41.015Z,96634.94
2023-03-26T06:06:42.851Z,96633.41
2023-03-26T06:08:46.645Z,96635.22
2023-03-26T06:10:48.620Z,96643.97
2023-03-26T06:12:49.954Z,96645.75
2023-03-26T06:14:51.230Z,96644.16
2023-03-26T06:16:52.561Z,96643.53
2023-03-26T06:18:56.348Z,96642.72
2023-03-26T06:20:58.304Z,96645.31
2023-03-26T06:22:59.633Z,96646.97
2023-03-26T06:25:00.936Z,96646.84
2023-03-26T06:27:02.220Z,96641.34
2023-03-26T06:29:03.525Z,96640.19
2023-03-26T06:31:04.839Z,96644.09
2023-03-26T06:33:06.629Z,96648.03
2023-03-26T06:35:07.955Z,96645.13
2023-03-26T06:37:09.290Z,96647.28
2023-03-26T06:39:10.640Z,96647.75
2023-03-26T06:41:11.983Z,96648.31
2023-03-26T06:43:13.334Z,96639.53
2023-03-26T06:45:14.625Z,96642.56
2023-03-26T06:47:15.932Z,96636.41
2023-03-26T06:49:17.531Z,96637.13
2023-03-26T06:51:18.825Z,96637.03
2023-03-26T06:53:20.336Z,96632.81
2023-03-26T06:55:21.670Z,96637.78
2023-03-26T06:57:23.012Z,96638.75
2023-03-26T06:59:27.060Z,96640.63
2023-03-26T07:01:28.427Z,96635.66
2023-03-26T07:03:30.178Z,96656.09
2023-03-26T07:05:31.482Z,96652.78
2023-03-26T07:07:32.775Z,96643.53
2023-03-26T07:09:34.077Z,96648.84
2023-03-26T07:11:35.600Z,96644.84
2023-03-26T07:13:37.766Z,96639.03
2023-03-26T07:15:39.062Z,96633.25
2023-03-26T07:17:40.555Z,96637.41
2023-03-26T07:19:41.874Z,96635.75
2023-03-26T07:21:43.232Z,96641.75
2023-03-26T07:23:44.536Z,96634.22
2023-03-26T07:25:45.922Z,96634.00
2023-03-26T07:27:47.244Z,96633.75
2023-03-26T07:29:48.540Z,96636.81
2023-03-26T07:31:53.013Z,96640.50
2023-03-26T07:33:54.451Z,96636.69
2023-03-26T07:35:56.020Z,96637.22
2023-03-26T07:37:57.387Z,96633.09
2023-03-26T07:39:58.783Z,96642.63
2023-03-26T07:42:00.318Z,96638.97
2023-03-26T07:44:02.385Z,96638.84
2023-03-26T07:46:03.691Z,96645.97
2023-03-26T07:48:05.117Z,96644.78
2023-03-26T07:50:06.455Z,96632.34
2023-03-26T07:52:07.763Z,96628.44
2023-03-26T07:54:09.058Z,96623.22
2023-03-26T07:56:10.403Z,96629.31
2023-03-26T07:58:11.713Z,96624.50
2023-03-26T08:00:13.084Z,96630.06
2023-03-26T08:02:14.432Z,96622.63
2023-03-26T08:04:23.833Z,96626.50
2023-03-26T08:06:27.041Z,96613.25
2023-03-26T08:08:28.484Z,96614.69
2023-03-26T08:10:29.769Z,96614.69
2023-03-26T08:12:31.231Z,96610.19
2023-03-26T08:14:33.435Z,96608.25
2023-03-26T08:16:37.773Z,96612.47
2023-03-26T08:18:39.147Z,96615.16
2023-03-26T08:20:41.564Z,96610.66
2023-03-26T08:22:49.429Z,96614.06
2023-03-26T08:24:53.484Z,96611.50
2023-03-26T08:26:57.454Z,96608.94
2023-03-26T08:28:59.484Z,96610.63
2023-03-26T08:31:03.016Z,96602.03
2023-03-26T08:33:04.420Z,96609.78
2023-03-26T08:35:05.751Z,96612.38
2023-03-26T08:37:10.829Z,96604.81
2023-03-26T08:39:13.129Z,96599.69
2023-03-26T08:41:19.166Z,96601.41
2023-03-26T08:43:20.626Z,96595.63
2023-03-26T08:45:21.960Z,96599.13
2023-03-26T08:47:23.502Z,96594.94
2023-03-26T08:49:26.253Z,96597.66
2023-03-26T08:51:28.599Z,96601.22
2023-03-26T08:53:29.947Z,96595.59
2023-03-26T08:55:31.307Z,96597.69
2023-03-26T08:57:32.733Z,96602.28
2023-03-26T08:59:34.084Z,96605.06
2023-03-26T09:01:35.584Z,96601.06
2023-03-26T09:03:37.036Z,96604.66
2023-03-26T09:05:38.399Z,96595.47
2023-03-26T09:07:45.789Z,96599.88
2023-03-26T09:09:47.376Z,96605.06
2023-03-26T09:11:48.712Z,96604.47
2023-03-26T09:13:50.016Z,96601.72
2023-03-26T09:15:51.407Z,96600.13
2023-03-26T09:17:57.886Z,96611.88
2023-03-26T09:19:59.730Z,96587.13
2023-03-26T09:22:01.202Z,96599.03
2023-03-26T09:24:02.541Z,96596.44
2023-03-26T09:26:03.934Z,96596.44
2023-03-26T09:28:08.255Z,96590.44
2023-03-26T09:30:12.481Z,96587.84
2023-03-26T09:32:13.840Z,96598.59
2023-03-26T09:34:15.140Z,96588.13
2023-03-26T09:36:16.436Z,96588.75
2023-03-26T09:38:17.773Z,96587.66
2023-03-26T09:40:19.137Z,96589.13
2023-03-26T09:42:20.807Z,96595.53
2023-03-26T09:44:22.100Z,96584.16
2023-03-26T09:46:23.423Z,96583.94
2023-03-26T09:48:24.729Z,96582.81
2023-03-26T09:50:26.447Z,96580.00
2023-03-26T09:52:27.776Z,96562.88
2023-03-26T09:54:29.078Z,96572.13
2023-03-26T09:56:30.512Z,96571.84
2023-03-26T09:58:31.877Z,96566.75
2023-03-26T10:00:33.174Z,96571.75
2023-03-26T10:02:45.973Z,96567.72
2023-03-26T10:04:48.460Z,96572.13
2023-03-26T10:06:49.823Z,96569.78
2023-03-26T10:08:54.166Z,96569.84
2023-03-26T10:10:56.001Z,96564.72
2023-03-26T10:13:12.028Z,96566.19
2023-03-26T10:15:16.038Z,96561.91
2023-03-26T10:17:17.366Z,96562.75
2023-03-26T10:19:19.072Z,96550.72
2023-03-26T10:21:21.613Z,96551.88
2023-03-26T10:23:27.914Z,96556.06
2023-03-26T10:25:29.356Z,96549.44
2023-03-26T10:27:30.700Z,96546.56
2023-03-26T10:29:31.992Z,96550.78
2023-03-26T10:31:34.285Z,96542.28
2023-03-26T10:33:35.619Z,96541.69
2023-03-26T10:35:37.419Z,96546.34
2023-03-26T10:37:38.805Z,96540.75
2023-03-26T10:39:41.694Z,96531.03
2023-03-26T10:41:44.900Z,96539.81
2023-03-26T10:43:54.600Z,96527.41
2023-03-26T10:46:06.081Z,96531.75
2023-03-26T10:48:07.499Z,96532.50
2023-03-26T10:50:08.879Z,96526.44
2023-03-26T10:52:10.320Z,96525.31
2023-03-26T10:54:14.861Z,96521.03
2023-03-26T10:56:16.227Z,96517.56
2023-03-26T10:58:17.599Z,96519.75
2023-03-26T11:00:24.651Z,96518.78
2023-03-26T11:02:30.409Z,96521.28
2023-03-26T11:04:32.211Z,96521.78
2023-03-26T11:06:34.631Z,96510.75
2023-03-26T11:08:36.285Z,96504.41
2023-03-26T11:10:37.593Z,96504.00
2023-03-26T11:12:38.919Z,96506.81
2023-03-26T11:14:40.644Z,96496.06
2023-03-26T11:16:41.943Z,96507.22
2023-03-26T11:18:43.250Z,96499.56
2023-03-26T11:20:44.557Z,96495.38
2023-03-26T11:22:46.297Z,96495.31
2023-03-26T11:24:47.651Z,96492.63
2023-03-26T11:26:51.646Z,96490.69
2023-03-26T11:29:04.429Z,96489.66
2023-03-26T11:31:17.483Z,96475.84
2023-03-26T11:33:19.094Z,96473.91
2023-03-26T11:35:40.434Z,96472.75
2023-03-26T11:37:42.320Z,96460.38
2023-03-26T11:39:44.177Z,96461.13
2023-03-26T11:41:45.607Z,96458.41
2023-03-26T11:43:55.536Z,96454.00
2023-03-26T11:45:56.882Z,96451.34
2023-03-26T11:47:58.241Z,96456.19
2023-03-26T11:49:59.597Z,96451.91
2023-03-26T11:52:02.153Z,96446.78
2023-03-26T11:54:06.430Z,96451.91
2023-03-26T11:56:10.413Z,96450.09
2023-03-26T11:58:11.730Z,96448.66
2023-03-26T12:00:20.988Z,96458.38
2023-03-26T12:02:22.428Z,96455.94
2023-03-26T12:04:23.790Z,96452.56
2023-03-26T12:06:29.082Z,96451.88
2023-03-26T12:08:30.393Z,96445.28
2023-03-26T12:10:31.744Z,96444.50
2023-03-26T12:12:33.069Z,96447.97
2023-03-26T12:14:34.369Z,96444.59
2023-03-26T12:16:36.657Z,96440.31
2023-03-26T12:18:42.410Z,96444.59
2023-03-26T12:20:45.033Z,96444.88
2023-03-26T12:22:47.794Z,96429.13
2023-03-26T12:24:50.087Z,96434.34
2023-03-26T12:26:51.412Z,96435.91
2023-03-26T12:28:52.747Z,96438.47
2023-03-26T12:30:55.067Z,96434.97
2023-03-26T12:32:56.586Z,96436.75
2023-03-26T12:34:57.921Z,96428.84
2023-03-26T12:37:02.412Z,96428.72
2023-03-26T12:39:17.173Z,96429.28
2023-03-26T12:44:44.988Z,96424.06
2023-03-26T12:44:56.034Z,96428.16
2023-03-26T12:47:54.377Z,96425.53
2023-03-26T12:48:29.430Z,96430.06
2023-03-26T12:50:34.162Z,96432.69
2023-03-26T12:52:38.267Z,96438.81
2023-03-26T12:54:40.434Z,96422.72
2023-03-26T12:56:41.909Z,96424.72
2023-03-26T12:58:43.295Z,96422.91
2023-03-26T13:00:44.608Z,96427.00
2023-03-26T13:02:46.278Z,96421.59
2023-03-26T13:05:02.207Z,96431.53
2023-03-26T13:07:06.544Z,96425.25
2023-03-26T13:09:07.847Z,96429.41
2023-03-26T13:11:09.393Z,96417.28
2023-03-26T13:13:10.694Z,96420.31
2023-03-26T13:15:12.413Z,96420.34
2023-03-26T13:17:13.890Z,96413.72
2023-03-26T13:19:15.401Z,96419.66
2023-03-26T13:21:16.740Z,96421.66
2023-03-26T13:23:21.006Z,96426.41
2023-03-26T13:25:25.078Z,96425.38
2023-03-26T13:27:26.531Z,96414.81
2023-03-26T13:29:27.874Z,96419.19
2023-03-26T13:31:29.235Z,96412.34
2023-03-26T13:33:30.744Z,96417.22
2023-03-26T13:35:32.159Z,96410.97
2023-03-26T13:37:33.579Z,96402.31
2023-03-26T13:39:35.010Z,96401.53
2023-03-26T13:41:39.055Z,96401.63
2023-03-26T13:43:40.602Z,96397.00
2023-03-26T13:45:41.963Z,96395.47
2023-03-26T13:47:46.005Z,96392.03
2023-03-26T13:49:50.309Z,96388.56
2023-03-26T13:51:51.640Z,96382.63
2023-03-26T13:53:53.775Z,96378.34
2023-03-26T13:55:55.365Z,96374.00
2023-03-26T13:57:56.943Z,96372.25
2023-03-26T13:59:58.270Z,96378.19
2023-03-26T14:01:59.637Z,96367.97
2023-03-26T14:04:02.229Z,96368.78
2023-03-26T14:06:03.673Z,96365.41
2023-03-26T14:08:07.961Z,96368.06
2023-03-26T14:10:09.371Z,96369.03
2023-03-26T14:12:21.455Z,96367.38
2023-03-26T14:14:23.332Z,96369.25
2023-03-26T14:16:24.696Z,96365.13
2023-03-26T14:18:26.099Z,96364.47
2023-03-26T14:20:27.832Z,96365.44
2023-03-26T14:22:29.134Z,96357.00
2023-03-26T14:24:33.625Z,96353.72
2023-03-26T14:26:37.948Z,96348.69
2023-03-26T14:28:39.322Z,96350.41
2023-03-26T14:30:40.695Z,96355.66
2023-03-26T14:32:42.028Z,96340.50
2023-03-26T14:34:45.334Z,96354.34
2023-03-26T14:36:46.798Z,96351.91
2023-03-26T14:38:48.159Z,96350.41
2023-03-26T14:40:49.475Z,96351.50
2023-03-26T14:42:52.910Z,96361.78
2023-03-26T14:44:56.319Z,96357.72
2023-03-26T14:46:57.785Z,96354.41
2023-03-26T14:48:59.252Z,96358.78
2023-03-26T14:51:00.541Z,96359.66
2023-03-26T14:53:02.109Z,96365.75
2023-03-26T14:55:03.443Z,96370.81
2023-03-26T14:57:04.793Z,96370.72
2023-03-26T14:59:06.147Z,96373.13
2023-03-26T15:01:07.712Z,96374.69
2023-03-26T15:03:09.165Z,96379.72
2023-03-26T15:05:10.604Z,96376.13
2023-03-26T15:07:12.928Z,96378.50
2023-03-26T15:09:14.354Z,96377.78
2023-03-26T15:11:16.308Z,96391.84
2023-03-26T15:13:17.661Z,96387.91
2023-03-26T15:15:19.218Z,96383.88
2023-03-26T15:17:20.631Z,96381.69
2023-03-26T15:19:22.015Z,96374.97
2023-03-26T15:21:23.404Z,96378.25
2023-03-26T15:23:27.371Z,96366.72
2023-03-26T15:25:34.598Z,96365.63
2023-03-26T15:27:41.967Z,96367.19
2023-03-26T15:29:43.290Z,96364.63
2023-03-26T15:31:47.424Z,96365.41
2023-03-26T15:33:49.159Z,96362.56
2023-03-26T15:35:50.741Z,96364.97
2023-03-26T15:37:52.686Z,96353.34
2023-03-26T15:40:08.157Z,96357.78
2023-03-26T15:42:09.499Z,96361.00
2023-03-26T15:44:24.672Z,96347.72
2023-03-26T15:46:26.827Z,96360.09
2023-03-26T15:48:30.030Z,96354.34
2023-03-26T15:50:31.384Z,96346.81
2023-03-26T15:52:32.912Z,96351.34
2023-03-26T15:54:34.253Z,96348.88
2023-03-26T15:56:35.655Z,96345.41
2023-03-26T15:58:37.906Z,96344.56
2023-03-26T16:00:39.283Z,96346.34
2023-03-26T16:02:40.681Z,96352.72
2023-03-26T16:04:50.883Z,96350.00
2023-03-26T16:06:53.967Z,96355.94
2023-03-26T16:08:55.931Z,96341.84
2023-03-26T16:10:57.607Z,96337.47
2023-03-26T16:12:59.107Z,96336.38
2023-03-26T16:15:00.955Z,96342.31
2023-03-26T16:17:02.284Z,96341.00
2023-03-26T16:19:05.407Z,96328.13
2023-03-26T16:21:06.877Z,96332.91
2023-03-26T16:23:08.165Z,96342.53
2023-03-26T16:25:26.396Z,96331.78
2023-03-26T16:27:30.281Z,96337.53
2023-03-26T16:29:33.699Z,96332.63
2023-03-26T16:31:38.763Z,96343.44
2023-03-26T16:33:40.605Z,96335.19
2023-03-26T16:35:42.204Z,96330.00
2023-03-26T16:37:53.388Z,96336.66
2023-03-26T16:39:57.644Z,96330.06
2023-03-26T16:42:05.594Z,96334.44
2023-03-26T16:44:10.686Z,96200.59
2023-03-26T16:46:12.083Z,96331.53
2023-03-26T16:48:13.404Z,96336.75
2023-03-26T16:50:14.823Z,96335.97
2023-03-26T16:52:19.019Z,96330.66
2023-03-26T16:54:20.360Z,96338.53
2023-03-26T16:56:22.419Z,96335.97
2023-03-26T16:58:23.787Z,96339.28
2023-03-26T17:00:25.087Z,96326.69
2023-03-26T17:02:26.448Z,96330.22
2023-03-26T17:04:27.975Z,96332.19
2023-03-26T17:08:35.449Z,96340.44
2023-03-26T17:10:38.306Z,96331.91
2023-03-26T17:12:43.010Z,96330.84
2023-03-26T17:14:48.881Z,96326.09
2023-03-26T17:16:50.366Z,96338.88
2023-03-26T17:18:51.702Z,96340.91
2023-03-26T17:20:56.309Z,96337.50
2023-03-26T17:22:57.910Z,96341.97
2023-03-26T17:24:59.464Z,96341.63
2023-03-26T17:27:00.958Z,96340.09
2023-03-26T17:29:02.269Z,96343.75
2023-03-26T17:31:03.626Z,96341.69
2023-03-26T17:33:08.857Z,96346.41
2023-03-26T17:35:10.645Z,96340.53
2023-03-26T17:37:13.011Z,96342.28
2023-03-26T17:39:14.398Z,96344.75
2023-03-26T17:41:17.848Z,96341.28
2023-03-26T17:43:21.931Z,96345.50
2023-03-26T17:45:30.356Z,96342.41
2023-03-26T17:47:32.640Z,96347.97
2023-03-26T17:49:36.698Z,96338.97
2023-03-26T17:51:40.225Z,96332.19
2023-03-26T17:53:42.044Z,96342.47
2023-03-26T17:55:43.389Z,96342.06
2023-03-26T17:57:44.711Z,96346.63
2023-03-26T17:59:46.176Z,96348.69
2023-03-26T18:01:48.231Z,96341.53
2023-03-26T18:03:49.679Z,96349.38
2023-03-26T18:05:52.320Z,96345.41
2023-03-26T18:07:53.631Z,96353.16
2023-03-26T18:09:57.938Z,96346.31
2023-03-26T18:11:59.249Z,96352.84
2023-03-26T18:14:00.541Z,96353.09
2023-03-26T18:16:01.887Z,96359.25
2023-03-26T18:18:04.010Z,96360.25
2023-03-26T18:20:12.557Z,96355.53
2023-03-26T18:22:13.967Z,96363.13
2023-03-26T18:24:15.286Z,96365.25
2023-03-26T18:26:16.829Z,96361.66
2023-03-26T18:28:18.244Z,96365.59
2023-03-26T18:30:26.145Z,96365.13
2023-03-26T18:32:36.729Z,96362.00
2023-03-26T18:34:38.033Z,96356.94
2023-03-26T18:36:42.166Z,96364.44
2023-03-26T18:38:49.592Z,96360.91
2023-03-26T18:40:54.237Z,96359.78
2023-03-26T18:42:55.875Z,96358.44
2023-03-26T18:44:59.736Z,96356.25
2023-03-26T18:47:06.780Z,96347.88
2023-03-26T18:49:08.105Z,96354.16
2023-03-26T18:51:12.468Z,96356.56
2023-03-26T18:53:13.842Z,96355.91
2023-03-26T18:55:15.455Z,96362.47
2023-03-26T18:57:17.161Z,96357.84
2023-03-26T18:59:19.038Z,96361.00
2023-03-26T19:01:25.705Z,96368.59
2023-03-26T19:03:27.631Z,96360.88
2023-03-26T19:05:29.272Z,96352.56
2023-03-26T19:07:30.578Z,96353.81
2023-03-26T19:09:32.645Z,96352.84
2023-03-26T19:11:34.111Z,96342.41
2023-03-26T19:13:35.580Z,96354.66
2023-03-26T19:15:36.925Z,96360.97
2023-03-26T19:17:38.456Z,96354.28
2023-03-26T19:19:39.820Z,96361.06
2023-03-26T19:21:41.660Z,96351.88
2023-03-26T19:23:42.955Z,96359.06
2023-03-26T19:25:44.744Z,96349.31
2023-03-26T19:27:46.111Z,96220.06
2023-03-26T19:29:47.492Z,96351.72
2023-03-26T19:31:48.790Z,96351.59
2023-03-26T19:33:50.109Z,96347.16
2023-03-26T19:35:51.634Z,96346.38
2023-03-26T19:37:54.322Z,96346.56
2023-03-26T19:40:00.142Z,96340.47
2023-03-26T19:42:01.451Z,96338.97
2023-03-26T19:44:02.745Z,96338.31
2023-03-26T19:46:04.044Z,96338.22
2023-03-26T19:48:14.470Z,96342.63
2023-03-26T19:50:16.974Z,96330.81
2023-03-26T19:52:18.288Z,96327.59
2023-03-26T19:54:19.838Z,96318.34
2023-03-26T19:56:22.227Z,96319.38
2023-03-26T19:58:23.724Z,96318.75
2023-03-26T20:00:25.353Z,96317.41
2023-03-26T20:02:26.875Z,96311.66
2023-03-26T20:04:35.213Z,96313.56
2023-03-26T20:06:43.829Z,96310.00
2023-03-26T20:08:50.786Z,96306.59
2023-03-26T20:10:55.041Z,96305.16
2023-03-26T20:12:56.552Z,96313.56
2023-03-26T20:14:57.872Z,96306.94
2023-03-26T20:16:59.254Z,96299.94
2023-03-26T20:19:04.272Z,96302.91
2023-03-26T20:21:11.652Z,96294.50
2023-03-26T20:23:14.212Z,96295.13
2023-03-26T20:25:15.508Z,96293.56
2023-03-26T20:27:16.917Z,96291.19
2023-03-26T20:29:19.115Z,96291.94
2023-03-26T20:31:21.995Z,96290.59
2023-03-26T20:33:25.489Z,96290.03
2023-03-26T20:35:35.861Z,96292.75
2023-03-26T20:39:39.681Z,96284.34
2023-03-26T20:41:41.037Z,96284.25
2023-03-26T20:43:42.620Z,96276.44
2023-03-26T20:45:43.960Z,96277.81
2023-03-26T20:47:45.310Z,96272.56
2023-03-26T20:49:49.575Z,96254.94
2023-03-26T20:51:50.921Z,96260.53
2023-03-26T20:53:52.279Z,96260.25
2023-03-26T20:55:53.714Z,96253.59
2023-03-26T20:57:55.312Z,96263.03
2023-03-26T20:59:59.594Z,96260.53
2023-03-26T21:02:02.185Z,96265.66
2023-03-26T21:04:04.438Z,96258.75
2023-03-26T21:06:05.835Z,96255.00
2023-03-26T21:08:07.149Z,96254.56
2023-03-26T21:10:08.465Z,96253.34
2023-03-26T21:12:11.254Z,96248.81
2023-03-26T21:14:12.546Z,96247.66
2023-03-26T21:16:14.511Z,96253.16
2023-03-26T21:18:15.852Z,96256.38
2023-03-26T21:20:17.148Z,96259.53
2023-03-26T21:22:18.756Z,96260.06
2023-03-26T21:24:20.120Z,96260.25
2023-03-26T21:26:22.291Z,96262.22
2023-03-26T21:28:28.919Z,96261.69
2023-03-26T21:30:37.405Z,96265.69
2023-03-26T21:32:39.156Z,96272.31
2023-03-26T21:34:47.881Z,96273.03
2023-03-26T21:36:57.172Z,96271.94
2023-03-26T21:38:58.487Z,96280.72
2023-03-26T21:41:00.027Z,96276.34
2023-03-26T21:43:02.190Z,96281.94
2023-03-26T21:45:03.818Z,96282.75
2023-03-26T21:47:09.529Z,96280.13
2023-03-26T21:49:11.200Z,96273.19
2023-03-26T21:51:14.757Z,96277.56
2023-03-26T21:53:16.650Z,96269.97
2023-03-26T21:55:17.996Z,96260.81
2023-03-26T21:57:19.328Z,96272.06
2023-03-26T21:59:20.646Z,96273.78
2023-03-26T22:01:21.980Z,96286.56
2023-03-26T22:03:23.525Z,96289.13
2023-03-26T22:05:31.140Z,96300.19
2023-03-26T22:07:32.511Z,96295.91
2023-03-26T22:09:36.119Z,96294.06
2023-03-26T22:11:37.972Z,96299.19
2023-03-26T22:13:39.340Z,96294.81
2023-03-26T22:15:41.159Z,96306.53
2023-03-26T22:17:42.796Z,96165.66
2023-03-26T22:19:44.170Z,96301.41
2023-03-26T22:21:45.467Z,96304.34
2023-03-26T22:23:52.627Z,96302.63
2023-03-26T22:25:54.093Z,96292.69
2023-03-26T22:27:55.416Z,96294.84
2023-03-26T22:29:56.760Z,96291.34
2023-03-26T22:31:58.063Z,96298.72
2023-03-26T22:33:59.377Z,96301.16
2023-03-26T22:36:01.157Z,96297.88
2023-03-26T22:38:02.564Z,96298.81
2023-03-26T22:40:05.511Z,96297.72
2023-03-26T22:42:07.086Z,96291.59
2023-03-26T22:44:19.196Z,96294.16
2023-03-26T22:46:21.818Z,96292.44
2023-03-26T22:48:23.511Z,96287.59
2023-03-26T22:50:25.955Z,96291.19
2023-03-26T22:52:27.308Z,96292.03
2023-03-26T22:54:28.649Z,96291.13
2023-03-26T22:56:29.965Z,96284.84
2023-03-26T22:58:32.044Z,96287.47
2023-03-26T23:00:34.810Z,96280.84
2023-03-26T23:02:36.163Z,96286.53
2023-03-26T23:04:37.828Z,96280.53
2023-03-26T23:06:39.179Z,96286.94
2023-03-26T23:08:40.514Z,96286.53
2023-03-26T23:10:42.618Z,96291.22
2023-03-26T23:12:43.916Z,96289.97
2023-03-26T23:17:23.926Z,96289.94
2023-03-26T23:19:25.525Z,96297.72
2023-03-26T23:21:26.820Z,96293.97
2023-03-26T23:23:28.758Z,96297.81
2023-03-26T23:25:30.779Z,96300.78
2023-03-26T23:27:32.958Z,96300.16
2023-03-26T23:29:34.378Z,96297.84
2023-03-26T23:31:35.744Z,96304.78
2023-03-26T23:33:37.140Z,96311.75
2023-03-26T23:35:38.488Z,96313.66
2023-03-26T23:37:42.538Z,96312.25
2023-03-26T23:39:46.689Z,96315.78
2023-03-26T23:41:48.087Z,96307.59
2023-03-26T23:43:55.538Z,96317.97
2023-03-26T23:45:58.028Z,96319.91
2023-03-26T23:47:59.415Z,96316.69
2023-03-26T23:50:02.374Z,96318.50
2023-03-26T23:52:04.256Z,96317.81
2023-03-26T23:54:05.564Z,96319.72
2023-03-26T23:56:07.000Z,96315.50
2023-03-26T23:58:08.808Z,96313.91
